Time;durP1;ratioP1;P1;durP2;ratioP2;P2;SDS_P1;SDS_P2;PMS_P1;PMS_P2;Temp;Humidity;BMP_temperature;BMP_pressure;BME280_temperature;BME280_humidity;BME280_pressure;Samples;Min_cycle;Max_cycle;Signal;HPM_P1;HPM_P2
2024/01/15 00:02:10;;;;;;;9.90;9.60;;;-3.80;99.90;;;;;;6232365;22;20286;-82
2024/01/15 00:04:39;;;;;;;9.90;9.60;;;-3.80;99.90;;;;;;6231991;23;20267;-81
2024/01/15 00:07:07;;;;;;;10.17;9.87;;;-3.80;99.90;;;;;;6237020;23;20199;-81
2024/01/15 00:09:34;;;;;;;9.67;9.37;;;-3.70;99.90;;;;;;6239247;23;20246;-81
2024/01/15 00:12:02;;;;;;;9.63;9.33;;;-3.70;99.90;;;;;;6237503;22;20204;-81
2024/01/15 00:14:29;;;;;;;9.90;9.60;;;-3.70;99.90;;;;;;6236610;23;20183;-82
2024/01/15 00:16:58;;;;;;;9.53;9.23;;;-3.70;99.90;;;;;;6233708;23;20274;-81
2024/01/15 00:19:27;;;;;;;10.00;9.70;;;-3.70;99.90;;;;;;6234419;23;20199;-82
2024/01/15 00:21:54;;;;;;;10.00;9.70;;;-3.70;99.90;;;;;;6232170;22;20202;-81
2024/01/15 00:24:22;;;;;;;10.17;9.87;;;-3.70;99.90;;;;;;6232558;23;20204;-81
2024/01/15 00:26:49;;;;;;;9.60;9.30;;;-3.70;99.90;;;;;;6232058;23;20212;-81
2024/01/15 00:29:16;;;;;;;10.00;9.70;;;-3.70;99.90;;;;;;6231183;23;20202;-82
2024/01/15 00:31:43;;;;;;;9.80;9.50;;;-3.70;99.90;;;;;;6230642;22;20202;-81
2024/01/15 00:34:12;;;;;;;9.93;9.63;;;-3.60;99.90;;;;;;6231266;23;20203;-81
2024/01/15 00:36:40;;;;;;;9.73;9.43;;;-3.70;99.90;;;;;;6231376;23;20195;-81
2024/01/15 00:39:07;;;;;;;10.27;9.97;;;-3.70;99.90;;;;;;6229811;23;20203;-82
2024/01/15 00:41:34;;;;;;;9.97;9.67;;;-3.60;99.90;;;;;;6230629;22;20206;-81
2024/01/15 00:44:02;;;;;;;10.10;9.80;;;-3.60;99.90;;;;;;6239562;23;20270;-81
2024/01/15 00:46:30;;;;;;;10.03;9.73;;;-3.60;99.90;;;;;;6232863;23;20195;-81
2024/01/15 00:48:57;;;;;;;9.80;9.50;;;-3.60;99.90;;;;;;6231693;23;20266;-82
2024/01/15 00:51:26;;;;;;;9.60;9.30;;;-3.50;99.90;;;;;;6231958;22;20221;-82
2024/01/15 00:53:53;;;;;;;10.00;9.70;;;-3.50;99.90;;;;;;6231446;23;20211;-81
2024/01/15 00:56:20;;;;;;;9.83;9.53;;;-3.50;99.90;;;;;;6231741;23;20222;-81
2024/01/15 00:58:48;;;;;;;9.67;9.37;;;-3.50;99.90;;;;;;6230518;23;20198;-82
2024/01/15 01:01:15;;;;;;;10.17;9.87;;;-3.50;99.90;;;;;;6230964;22;20199;-82
2024/01/15 01:03:42;;;;;;;9.90;9.60;;;-3.50;99.90;;;;;;6231300;23;20274;-81
2024/01/15 01:06:10;;;;;;;10.03;9.73;;;-3.40;99.90;;;;;;6231333;23;20198;-82
2024/01/15 01:08:39;;;;;;;9.87;9.57;;;-3.40;99.90;;;;;;6230269;23;20203;-82
2024/01/15 01:11:06;;;;;;;10.23;9.93;;;-3.40;99.90;;;;;;6231009;22;20507;-81
2024/01/15 01:13:34;;;;;;;9.50;9.20;;;-3.40;99.90;;;;;;6230191;23;20202;-81
2024/01/15 01:16:01;;;;;;;9.90;9.60;;;-3.40;99.90;;;;;;6230928;23;20206;-82
2024/01/15 01:18:29;;;;;;;10.17;9.87;;;-3.30;99.90;;;;;;6230723;23;20194;-81
2024/01/15 01:20:56;;;;;;;10.50;10.20;;;-3.30;99.90;;;;;;6230778;22;20215;-81
2024/01/15 01:23:23;;;;;;;10.00;9.70;;;-3.30;99.90;;;;;;6231330;23;20207;-81
2024/01/15 01:25:52;;;;;;;10.17;9.87;;;-3.20;99.90;;;;;;6235543;23;20199;-82
2024/01/15 01:28:19;;;;;;;10.80;10.50;;;-3.20;99.90;;;;;;6233704;23;20195;-81
2024/01/15 01:30:46;;;;;;;10.50;10.20;;;-3.20;99.90;;;;;;6231703;23;20253;-81
2024/01/15 01:33:14;;;;;;;10.87;10.57;;;-3.10;99.90;;;;;;6231659;23;20218;-80
2024/01/15 01:35:41;;;;;;;11.03;10.73;;;-3.10;99.90;;;;;;6231473;23;20191;-81
2024/01/15 01:38:08;;;;;;;10.20;9.90;;;-3.20;99.90;;;;;;6231350;23;20210;-80
2024/01/15 01:40:35;;;;;;;10.73;10.43;;;-3.10;99.90;;;;;;6230964;23;20207;-80
2024/01/15 01:43:06;;;;;;;10.80;10.50;;;-3.20;99.90;;;;;;6233522;22;20208;-81
2024/01/15 01:45:33;;;;;;;11.07;10.77;;;-3.10;99.90;;;;;;6244071;23;20196;-81
2024/01/15 01:48:02;;;;;;;10.87;10.57;;;-3.00;99.90;;;;;;6245041;23;20230;-81
2024/01/15 01:50:31;;;;;;;10.73;10.43;;;-3.00;99.90;;;;;;6245505;23;20192;-81
2024/01/15 01:52:58;;;;;;;10.87;10.57;;;-3.00;99.90;;;;;;6242309;22;20210;-80
2024/01/15 01:55:29;;;;;;;11.07;10.77;;;-3.00;99.90;;;;;;6246419;22;20175;-80
2024/01/15 01:57:56;;;;;;;11.20;10.90;;;-3.00;99.90;;;;;;6249520;22;20203;-80
2024/01/15 02:00:25;;;;;;;11.50;11.10;;;-3.00;99.90;;;;;;6249458;22;20198;-81
2024/01/15 02:02:52;;;;;;;10.93;10.63;;;-3.00;99.90;;;;;;6250048;22;20180;-81
2024/01/15 02:05:21;;;;;;;11.43;11.03;;;-2.90;99.90;;;;;;6250549;22;20179;-81
2024/01/15 02:07:49;;;;;;;10.90;10.60;;;-3.00;99.90;;;;;;6250261;22;20239;-81
2024/01/15 02:10:16;;;;;;;11.10;10.80;;;-2.90;99.90;;;;;;6246987;23;20199;-80
2024/01/15 02:12:44;;;;;;;11.53;11.13;;;-2.90;99.90;;;;;;6247550;22;20245;-81
2024/01/15 02:15:12;;;;;;;11.00;10.70;;;-2.90;99.90;;;;;;6250640;22;20181;-80
2024/01/15 02:18:00;;;;;;;10.80;10.50;;;-2.90;99.90;;;;;;6250679;22;20197;-81
2024/01/15 02:20:27;;;;;;;11.50;11.10;;;-2.90;99.90;;;;;;6249701;22;20175;-81
2024/01/15 02:22:54;;;;;;;11.53;11.13;;;-2.90;99.90;;;;;;6248990;22;20179;-81
2024/01/15 02:25:23;;;;;;;10.73;10.43;;;-2.90;99.90;;;;;;6250372;22;20214;-81
2024/01/15 02:27:51;;;;;;;11.30;10.90;;;-2.90;99.90;;;;;;6250203;22;20179;-81
2024/01/15 02:30:18;;;;;;;10.70;10.40;;;-2.80;99.90;;;;;;6249852;22;20235;-81
2024/01/15 02:32:46;;;;;;;11.50;11.10;;;-2.80;99.90;;;;;;6249266;22;20183;-81
2024/01/15 02:35:14;;;;;;;10.93;10.63;;;-2.70;99.90;;;;;;6249904;22;20210;-81
2024/01/15 02:37:42;;;;;;;10.97;10.67;;;-2.70;99.90;;;;;;6249674;22;20246;-80
2024/01/15 02:40:11;;;;;;;10.60;10.30;;;-2.80;99.90;;;;;;6237598;22;20195;-81
2024/01/15 02:42:39;;;;;;;11.10;10.80;;;-2.70;99.90;;;;;;6232677;22;20211;-81
2024/01/15 02:45:07;;;;;;;11.37;10.97;;;-2.70;99.90;;;;;;6233193;23;20195;-81
2024/01/15 02:47:35;;;;;;;10.87;10.57;;;-2.70;99.90;;;;;;6232138;23;20202;-81
2024/01/15 02:50:02;;;;;;;10.23;9.93;;;-2.60;99.90;;;;;;6232270;23;20198;-81
2024/01/15 02:52:29;;;;;;;10.90;10.60;;;-2.60;99.90;;;;;;6231838;22;20221;-81
2024/01/15 02:54:57;;;;;;;10.90;10.60;;;-2.70;99.90;;;;;;6231588;23;20192;-81
2024/01/15 02:57:24;;;;;;;10.70;10.40;;;-2.60;99.90;;;;;;6231795;23;20199;-81
2024/01/15 02:59:53;;;;;;;10.27;9.97;;;-2.60;99.90;;;;;;6231642;23;20221;-81
2024/01/15 03:02:20;;;;;;;10.73;10.43;;;-2.70;99.90;;;;;;6231202;22;20199;-81
2024/01/15 03:04:48;;;;;;;10.23;9.93;;;-2.60;99.90;;;;;;6231997;23;20195;-82
2024/01/15 03:07:15;;;;;;;10.73;10.43;;;-2.70;99.90;;;;;;6231704;23;20246;-82
2024/01/15 03:09:42;;;;;;;10.70;10.40;;;-2.70;99.90;;;;;;6231500;23;20307;-81
2024/01/15 03:12:10;;;;;;;11.47;11.07;;;-2.60;99.90;;;;;;6231464;22;20205;-81
2024/01/15 03:14:38;;;;;;;10.37;10.07;;;-2.60;99.90;;;;;;6231484;23;20206;-81
2024/01/15 03:17:08;;;;;;;11.33;10.93;;;-2.60;99.90;;;;;;6231238;23;20195;-81
2024/01/15 03:19:36;;;;;;;11.37;10.97;;;-2.60;99.90;;;;;;6232144;23;20203;-81
2024/01/15 03:22:04;;;;;;;11.57;11.17;;;-2.60;99.90;;;;;;6231380;22;20203;-81
2024/01/15 03:24:33;;;;;;;10.70;10.40;;;-2.60;99.90;;;;;;6239049;23;20209;-81
2024/01/15 03:27:00;;;;;;;10.87;10.57;;;-2.50;99.90;;;;;;6232892;23;21010;-81
2024/01/15 03:29:28;;;;;;;11.20;10.87;;;-2.60;99.90;;;;;;6232617;23;20207;-81
2024/01/15 03:31:58;;;;;;;11.27;10.93;;;-2.50;99.90;;;;;;6231634;22;20199;-80
2024/01/15 03:34:27;;;;;;;11.10;10.80;;;-2.50;99.90;;;;;;6234383;23;20233;-81
2024/01/15 03:36:54;;;;;;;11.03;10.73;;;-2.50;99.90;;;;;;6235247;23;20195;-82
2024/01/15 03:39:21;;;;;;;11.00;10.70;;;-2.50;99.90;;;;;;6232322;23;20209;-81
2024/01/15 03:41:49;;;;;;;10.97;10.67;;;-2.50;99.90;;;;;;6231626;22;20210;-81
2024/01/15 03:44:16;;;;;;;10.90;10.60;;;-2.40;99.90;;;;;;6231588;23;20198;-81
2024/01/15 03:46:43;;;;;;;11.20;10.90;;;-2.40;99.90;;;;;;6231702;23;20217;-81
2024/01/15 03:49:11;;;;;;;11.00;10.70;;;-2.40;99.90;;;;;;6231617;23;20222;-81
2024/01/15 03:51:39;;;;;;;11.27;10.97;;;-2.40;99.90;;;;;;6230690;22;20282;-81
2024/01/15 03:54:07;;;;;;;10.90;10.60;;;-2.40;99.90;;;;;;6231058;23;20262;-81
2024/01/15 03:56:34;;;;;;;11.00;10.70;;;-2.40;99.90;;;;;;6230783;23;20282;-81
2024/01/15 03:59:01;;;;;;;11.57;11.17;;;-2.40;99.90;;;;;;6231029;23;20250;-82
2024/01/15 04:01:29;;;;;;;10.67;10.37;;;-2.30;99.90;;;;;;6231334;23;20222;-81
2024/01/15 04:03:56;;;;;;;10.97;10.67;;;-2.40;99.90;;;;;;6231585;23;20199;-81
2024/01/15 04:06:24;;;;;;;11.57;11.17;;;-2.40;99.90;;;;;;6231212;23;20226;-81
2024/01/15 04:08:52;;;;;;;11.43;11.03;;;-2.40;99.90;;;;;;6231253;23;20246;-82
2024/01/15 04:11:20;;;;;;;11.43;11.03;;;-2.40;99.90;;;;;;6231579;22;20217;-81
2024/01/15 04:13:47;;;;;;;11.87;11.47;;;-2.40;99.90;;;;;;6231424;23;20252;-80
2024/01/15 04:16:14;;;;;;;11.57;11.17;;;-2.40;99.90;;;;;;6230942;23;20201;-81
2024/01/15 04:18:42;;;;;;;11.50;11.10;;;-2.40;99.90;;;;;;6232557;23;20201;-82
2024/01/15 04:21:09;;;;;;;11.50;11.10;;;-2.30;99.90;;;;;;6232297;22;20202;-81
2024/01/15 04:23:36;;;;;;;11.60;11.20;;;-2.30;99.90;;;;;;6230471;23;20268;-81
2024/01/15 04:26:05;;;;;;;11.70;11.30;;;-2.30;99.90;;;;;;6230815;23;20197;-82
2024/01/15 04:28:32;;;;;;;11.33;10.97;;;-2.20;99.90;;;;;;6230519;23;20191;-81
2024/01/15 04:31:00;;;;;;;11.20;10.90;;;-2.20;99.90;;;;;;6231078;22;20196;-81
2024/01/15 04:33:27;;;;;;;11.50;11.10;;;-2.20;99.90;;;;;;6229751;23;20210;-82
2024/01/15 04:35:54;;;;;;;10.83;10.53;;;-2.20;99.90;;;;;;6230834;23;20275;-81
2024/01/15 04:38:21;;;;;;;11.10;10.80;;;-2.20;99.90;;;;;;6230145;23;20197;-81
2024/01/15 04:40:49;;;;;;;11.70;11.30;;;-2.20;99.90;;;;;;6229782;23;20197;-81
2024/01/15 04:43:17;;;;;;;11.50;11.10;;;-2.10;99.90;;;;;;6230491;22;20206;-81
2024/01/15 04:45:44;;;;;;;11.70;11.30;;;-2.10;99.90;;;;;;6234579;23;20201;-81
2024/01/15 04:48:12;;;;;;;10.77;10.47;;;-2.10;99.90;;;;;;6241942;23;20199;-82
2024/01/15 04:50:39;;;;;;;10.93;10.63;;;-2.00;99.90;;;;;;6241044;23;20187;-80
2024/01/15 04:53:06;;;;;;;11.67;11.27;;;-2.00;99.90;;;;;;6243317;22;20213;-81
2024/01/15 04:55:33;;;;;;;10.50;10.20;;;-2.00;99.90;;;;;;6242803;23;20254;-81
2024/01/15 04:58:01;;;;;;;11.10;10.80;;;-2.00;99.90;;;;;;6237240;23;20198;-81
2024/01/15 05:00:29;;;;;;;11.07;10.77;;;-2.00;99.90;;;;;;6233833;23;20250;-81
2024/01/15 05:02:57;;;;;;;11.00;10.70;;;-2.00;99.90;;;;;;6234323;22;20662;-81
2024/01/15 05:05:24;;;;;;;10.80;10.50;;;-1.90;99.90;;;;;;6233095;23;20201;-81
2024/01/15 05:07:51;;;;;;;10.70;10.40;;;-1.90;99.90;;;;;;6232893;23;20208;-81
2024/01/15 05:10:19;;;;;;;10.70;10.40;;;-1.90;99.90;;;;;;6233242;23;20215;-81
2024/01/15 05:12:46;;;;;;;11.10;10.80;;;-1.90;99.90;;;;;;6233629;22;20210;-81
2024/01/15 05:15:14;;;;;;;11.00;10.70;;;-1.90;99.90;;;;;;6237724;23;20207;-82
2024/01/15 05:17:42;;;;;;;11.27;10.87;;;-1.90;99.90;;;;;;6235121;23;20255;-82
2024/01/15 05:20:11;;;;;;;11.23;10.87;;;-1.90;99.90;;;;;;6231936;23;20201;-81
2024/01/15 05:22:39;;;;;;;11.00;10.70;;;-1.90;99.90;;;;;;6233542;22;20212;-81
2024/01/15 05:25:07;;;;;;;11.23;10.83;;;-1.90;99.90;;;;;;6231918;23;20198;-82
2024/01/15 05:27:35;;;;;;;11.53;11.13;;;-1.90;99.90;;;;;;6232374;23;20202;-81
2024/01/15 05:30:02;;;;;;;11.20;10.90;;;-1.80;99.90;;;;;;6232930;23;20206;-81
2024/01/15 05:32:31;;;;;;;11.17;10.87;;;-1.80;99.90;;;;;;6235550;22;20225;-81
2024/01/15 05:35:00;;;;;;;11.53;11.13;;;-1.80;99.90;;;;;;6233224;23;20206;-82
2024/01/15 05:37:27;;;;;;;11.10;10.80;;;-1.80;99.90;;;;;;6232929;23;20203;-81
2024/01/15 05:39:55;;;;;;;10.80;10.50;;;-1.80;99.90;;;;;;6233444;23;20249;-81
2024/01/15 05:42:22;;;;;;;11.00;10.70;;;-1.70;99.90;;;;;;6233799;22;20207;-81
2024/01/15 05:44:50;;;;;;;11.03;10.73;;;-1.70;99.90;;;;;;6233601;23;20288;-81
2024/01/15 05:47:18;;;;;;;11.97;11.57;;;-1.70;99.90;;;;;;6233973;23;20260;-81
2024/01/15 05:49:46;;;;;;;11.60;11.20;;;-1.70;99.90;;;;;;6234352;23;20217;-83
2024/01/15 05:52:36;;;;;;;10.80;10.50;;;-1.70;99.90;;;;;;6229625;22;20211;-84
2024/01/15 05:55:18;;;;;;;10.67;10.37;;;-1.70;99.90;;;;;;6233862;23;20210;-86
2024/01/15 05:57:54;;;;;;;10.23;9.93;;;-1.60;99.90;;;;;;6244391;22;20175;-86
2024/01/15 06:03:32;;;;;;;10.63;10.33;;;-1.60;99.90;;;;;;6221972;22;20203;-86
2024/01/15 06:06:01;;;;;;;11.07;10.77;;;-1.60;99.90;;;;;;6227679;23;20225;-86
2024/01/15 06:08:36;;;;;;;10.47;10.17;;;-1.60;99.90;;;;;;6227629;23;20229;-85
2024/01/15 06:11:19;;;;;;;10.60;10.30;;;-1.60;99.90;;;;;;6228089;23;20211;-86
2024/01/15 06:13:50;;;;;;;10.70;10.40;;;-1.60;99.90;;;;;;6229147;23;20202;-85
2024/01/15 06:16:20;;;;;;;11.00;10.70;;;-1.60;99.90;;;;;;6228589;23;20201;-86
2024/01/15 06:18:51;;;;;;;10.87;10.57;;;-1.60;99.90;;;;;;6228761;23;20198;-86
2024/01/15 06:21:21;;;;;;;10.60;10.30;;;-1.60;99.90;;;;;;6228627;22;20199;-86
2024/01/15 06:23:56;;;;;;;10.57;10.27;;;-1.60;99.90;;;;;;6229437;23;20196;-85
2024/01/15 06:26:26;;;;;;;10.90;10.60;;;-1.60;99.90;;;;;;6229049;23;20193;-86
2024/01/15 06:29:03;;;;;;;10.60;10.30;;;-1.60;99.90;;;;;;6226793;23;20289;-86
2024/01/15 06:31:48;;;;;;;10.17;9.87;;;-1.60;99.90;;;;;;6227952;22;20176;-86
2024/01/15 06:34:22;;;;;;;10.40;10.10;;;-1.60;99.90;;;;;;6228835;23;20232;-86
2024/01/15 06:36:56;;;;;;;9.97;9.67;;;-1.60;99.90;;;;;;6244310;22;20179;-86
2024/01/15 06:39:31;;;;;;;10.60;10.30;;;-1.70;99.90;;;;;;6239497;22;20227;-86
2024/01/15 06:42:02;;;;;;;11.33;10.93;;;-1.60;99.90;;;;;;6229364;22;20207;-85
2024/01/15 06:44:34;;;;;;;11.50;11.10;;;-1.70;99.90;;;;;;6236598;22;20195;-86
2024/01/15 06:47:17;;;;;;;;;;;;;;;;;;;;;
2024/01/15 06:49:52;;;;;;;11.50;11.10;;;-1.70;99.90;;;;;;6246076;22;20225;-85
2024/01/15 06:52:24;;;;;;;11.13;10.83;;;-1.70;99.90;;;;;;6228821;22;20259;-85
2024/01/15 06:55:00;;;;;;;11.30;10.90;;;-1.70;99.90;;;;;;6227778;23;20192;-85
2024/01/15 06:57:32;;;;;;;11.73;11.33;;;-1.60;99.90;;;;;;6227818;23;20248;-84
2024/01/15 07:00:22;;;;;;;11.70;11.30;;;-1.60;99.90;;;;;;6230179;23;20193;-84
2024/01/15 07:03:00;;;;;;;11.70;11.30;;;-1.60;99.90;;;;;;6235953;22;20289;-86
2024/01/15 07:08:29;;;;;;;11.33;10.93;;;-1.50;99.90;;;;;;6112211;22;20203;-85
2024/01/15 07:11:28;;;;;;;11.57;11.17;;;-1.50;99.90;;;;;;6111035;22;20202;-87
2024/01/15 07:14:21;;;;;;;11.10;10.70;;;-1.50;99.90;;;;;;6078813;23;20263;-86
2024/01/15 07:16:54;;;;;;;10.93;10.53;;;-1.50;99.90;;;;;;6077851;23;20205;-83
2024/01/15 07:19:32;;;;;;;10.30;10.00;;;-1.50;99.90;;;;;;6077780;23;20204;-85
2024/01/15 07:22:00;;;;;;;9.83;9.53;;;-1.60;99.90;;;;;;6076167;23;20198;-86
2024/01/15 07:24:48;;;;;;;10.00;9.70;;;-1.60;99.90;;;;;;6078031;23;20227;-86
2024/01/15 07:27:26;;;;;;;10.10;9.80;;;-1.60;99.90;;;;;;6078579;23;20202;-86
2024/01/15 07:30:06;;;;;;;9.97;9.67;;;-1.70;99.90;;;;;;6077286;23;20205;-86
2024/01/15 07:32:37;;;;;;;9.80;9.50;;;-1.70;99.90;;;;;;6077258;23;20269;-86
2024/01/15 07:35:10;;;;;;;9.60;9.30;;;-1.60;99.90;;;;;;6078851;23;20214;-86
2024/01/15 07:38:03;;;;;;;10.00;9.70;;;-1.60;99.90;;;;;;6088089;23;20204;-86
2024/01/15 07:41:06;;;;;;;9.80;9.50;;;-1.60;99.90;;;;;;6085649;23;20264;-83
2024/01/15 07:43:45;;;;;;;9.07;8.77;;;-1.60;99.90;;;;;;6089556;23;20213;-84
2024/01/15 07:46:42;;;;;;;8.63;8.43;;;-1.60;99.90;;;;;;6083064;23;20211;-84
2024/01/15 07:49:21;;;;;;;8.90;8.70;;;-1.60;99.90;;;;;;6079006;23;20208;-85
2024/01/15 07:52:08;;;;;;;8.87;8.67;;;-1.60;99.90;;;;;;6078661;23;20218;-85
2024/01/15 07:54:53;;;;;;;8.50;8.30;;;-1.50;99.90;;;;;;6077837;23;20202;-85
2024/01/15 07:57:37;;;;;;;8.50;8.30;;;-1.50;99.90;;;;;;6090162;22;20186;-82
2024/01/15 08:00:22;;;;;;;8.40;8.20;;;-1.50;99.90;;;;;;6096014;22;20203;-82
2024/01/15 08:09:04;;;;;;;8.17;7.97;;;-1.40;99.90;;;;;;6087849;23;20194;-84
2024/01/15 08:11:49;;;;;;;8.00;7.80;;;-1.40;99.90;;;;;;6084932;23;20203;-84
2024/01/15 08:14:20;;;;;;;7.97;7.77;;;-1.40;99.90;;;;;;6078706;23;20237;-84
2024/01/15 08:16:59;;;;;;;7.97;7.77;;;-1.40;99.90;;;;;;6079856;23;20204;-84
2024/01/15 08:19:31;;;;;;;7.83;7.63;;;-1.30;99.90;;;;;;6081054;23;20199;-84
2024/01/15 08:22:00;;;;;;;7.80;7.60;;;-1.20;99.90;;;;;;6083528;23;20229;-83
2024/01/15 08:24:49;;;;;;;7.73;7.53;;;-1.20;99.90;;;;;;6091691;22;20198;-84
2024/01/15 08:27:27;;;;;;;8.10;7.90;;;-1.20;99.90;;;;;;6078264;23;20253;-84
2024/01/15 08:29:59;;;;;;;7.70;7.50;;;-1.20;99.90;;;;;;6079379;23;20196;-84
2024/01/15 08:32:41;;;;;;;;;;;;;;;;;;;;;
2024/01/15 08:35:22;;;;;;;7.90;7.70;;;-1.10;99.90;;;;;;6097682;22;20280;-82
2024/01/15 08:37:58;;;;;;;8.50;8.30;;;-1.00;99.90;;;;;;6087505;23;20201;-84
2024/01/15 08:41:06;;;;;;;7.37;7.17;;;-1.00;99.90;;;;;;6080156;23;20189;-83
2024/01/15 08:43:56;;;;;;;7.43;7.23;;;-1.00;99.90;;;;;;6079370;23;20209;-84
2024/01/15 08:46:42;;;;;;;7.27;7.07;;;-1.00;99.90;;;;;;6079365;23;20202;-84
2024/01/15 08:49:20;;;;;;;8.03;7.83;;;-1.00;99.90;;;;;;6080862;23;20202;-84
2024/01/15 08:52:13;;;;;;;7.50;7.30;;;-0.90;99.90;;;;;;6079961;23;20205;-84
2024/01/15 08:54:56;;;;;;;7.87;7.67;;;-0.90;99.90;;;;;;6078149;23;20214;-84
2024/01/15 08:57:29;;;;;;;7.60;7.40;;;-0.90;99.90;;;;;;6077903;23;20283;-84
2024/01/15 09:00:18;;;;;;;8.20;8.00;;;-0.90;99.90;;;;;;6077743;23;20256;-84
2024/01/15 09:02:55;;;;;;;8.47;8.27;;;-0.80;99.90;;;;;;6077686;23;20213;-84
2024/01/15 09:05:45;;;;;;;8.40;8.20;;;-0.80;99.90;;;;;;6078260;23;20200;-84
2024/01/15 09:08:28;;;;;;;9.20;8.90;;;-0.80;99.90;;;;;;6050409;23;20206;-84
2024/01/15 09:11:04;;;;;;;8.73;8.53;;;-0.80;99.90;;;;;;6047840;23;20218;-84
2024/01/15 09:13:43;;;;;;;8.30;8.10;;;-0.90;99.90;;;;;;6046683;23;20211;-84
2024/01/15 09:16:30;;;;;;;8.17;7.97;;;-0.90;99.90;;;;;;6047293;23;20209;-84
2024/01/15 09:19:39;;;;;;;7.50;7.30;;;-0.90;99.90;;;;;;6047066;23;20229;-85
2024/01/15 09:22:41;;;;;;;7.70;7.50;;;-0.90;99.90;;;;;;6050685;23;20213;-83
2024/01/15 09:25:40;;;;;;;;;;;;;;;;;;;;;
2024/01/15 09:31:46;;;;;;;7.00;6.80;;;-0.80;99.90;;;;;;6043758;23;20214;-83
2024/01/15 09:34:24;;;;;;;6.60;6.40;;;-0.70;99.90;;;;;;6046095;23;20277;-85
2024/01/15 09:37:29;;;;;;;7.20;7.00;;;-0.70;99.90;;;;;;6046195;23;20226;-85
2024/01/15 09:40:39;;;;;;;7.10;6.90;;;-0.60;99.90;;;;;;6047001;23;20202;-85
2024/01/15 09:43:12;;;;;;;7.07;6.87;;;-0.50;99.90;;;;;;6039895;23;20272;-84
2024/01/15 09:49:21;;;;;;;7.10;6.90;;;-0.40;99.90;;;;;;6014875;23;20285;-84
2024/01/15 09:52:15;;;;;;;6.80;6.60;;;-0.40;99.90;;;;;;6045258;23;20723;-84
2024/01/15 09:55:29;;;;;;;7.17;6.97;;;-0.30;99.90;;;;;;6044860;23;20209;-84
2024/01/15 09:58:38;;;;;;;7.23;7.03;;;-0.20;99.90;;;;;;6051222;23;20210;-83
2024/01/15 10:01:49;;;;;;;7.57;7.37;;;-0.20;99.90;;;;;;6053146;23;20205;-85
2024/01/15 10:04:37;;;;;;;7.23;7.03;;;-0.20;99.90;;;;;;6044620;23;20231;-84
2024/01/15 10:07:41;;;;;;;7.43;7.23;;;-0.20;99.90;;;;;;6062572;23;20228;-84
2024/01/15 10:13:52;;;;;;;7.53;7.33;;;-0.20;99.90;;;;;;6065588;23;20300;-85
2024/01/15 10:16:39;;;;;;;8.30;8.10;;;-0.20;99.90;;;;;;6073763;23;20242;-84
2024/01/15 10:19:57;;;;;;;7.57;7.37;;;-0.30;99.90;;;;;;6073046;23;20280;-85
2024/01/15 10:30:06;;;;;;;7.50;7.30;;;-0.40;99.90;;;;;;6069537;23;20216;-85
2024/01/15 10:33:12;;;;;;;;;;;;;;;;;;;;;
2024/01/15 10:36:42;;;;;;;;;;;;;;;;;;;;;
2024/01/15 10:40:16;;;;;;;;;;;;;;;;;;;;;
2024/01/15 10:43:22;;;;;;;7.77;7.57;;;-0.30;99.90;;;;;;6089353;23;20213;-84
2024/01/15 10:49:20;;;;;;;;;;;;;;;;;;;;;
2024/01/15 10:52:18;;;;;;;;;;;;;;;;;;;;;
2024/01/15 10:55:22;;;;;;;8.00;7.80;;;-0.30;99.90;;;;;;6096323;22;20237;-83
2024/01/15 10:58:23;;;;;;;7.13;6.93;;;-0.30;99.90;;;;;;6072731;23;20264;-84
2024/01/15 11:05:05;;;;;;;6.60;6.40;;;-0.30;99.90;;;;;;5959132;23;20288;-86
2024/01/15 11:08:18;;;;;;;6.63;6.43;;;-0.30;99.90;;;;;;6072464;23;20342;-85
2024/01/15 11:11:51;;;;;;;;;;;;;;;;;;;;;
2024/01/15 11:15:31;;;;;;;;;;;;;;;;;;;;;
2024/01/15 11:18:22;;;;;;;7.80;7.60;;;-0.20;99.90;;;;;;6082269;23;20208;-85
2024/01/15 11:25:45;;;;;;;7.37;7.17;;;-0.20;99.90;;;;;;6048056;23;20224;-85
2024/01/15 11:32:58;;;;;;;7.50;7.30;;;-0.30;99.90;;;;;;6072637;23;20230;-84
2024/01/15 11:36:30;;;;;;;;;;;;;;;;;;;;;
2024/01/15 11:53:02;;;;;;;7.07;6.87;;;-0.10;99.90;;;;;;6037787;23;20206;-83
2024/01/15 11:55:35;;;;;;;7.53;7.33;;;-0.20;99.90;;;;;;6103113;22;20217;-81
2024/01/15 11:58:03;;;;;;;7.33;7.13;;;-0.20;99.90;;;;;;6103312;23;20205;-80
2024/01/15 12:00:31;;;;;;;7.30;7.10;;;-0.20;99.90;;;;;;6102532;23;20205;-80
2024/01/15 12:03:02;;;;;;;7.03;6.83;;;-0.20;99.90;;;;;;6103436;23;20212;-80
2024/01/15 12:05:31;;;;;;;7.33;7.13;;;-0.20;99.90;;;;;;6103505;23;20198;-80
2024/01/15 12:07:59;;;;;;;7.47;7.27;;;-0.20;99.90;;;;;;6105174;23;20193;-80
2024/01/15 12:10:27;;;;;;;7.40;7.20;;;-0.20;99.90;;;;;;6102847;23;20267;-81
2024/01/15 12:13:00;;;;;;;6.90;6.70;;;-0.20;99.90;;;;;;6103817;23;20205;-81
2024/01/15 12:15:30;;;;;;;6.77;6.57;;;-0.30;99.90;;;;;;6103197;23;20236;-81
2024/01/15 12:17:58;;;;;;;7.20;7.00;;;-0.20;99.90;;;;;;6103457;23;20233;-82
2024/01/15 12:20:26;;;;;;;7.40;7.20;;;-0.20;99.90;;;;;;6103350;23;20239;-81
2024/01/15 12:22:54;;;;;;;6.80;6.60;;;-0.20;99.90;;;;;;6103915;23;20208;-81
2024/01/15 12:25:24;;;;;;;6.90;6.70;;;-0.30;99.90;;;;;;6105036;23;20296;-81
2024/01/15 12:27:52;;;;;;;7.00;6.80;;;-0.20;99.90;;;;;;6105003;23;20210;-82
2024/01/15 12:30:19;;;;;;;7.10;6.90;;;-0.20;99.90;;;;;;6104358;23;20209;-81
2024/01/15 12:32:47;;;;;;;6.60;6.40;;;-0.20;99.90;;;;;;6103656;23;20197;-81
2024/01/15 12:35:16;;;;;;;6.60;6.40;;;-0.20;99.90;;;;;;6103841;23;20194;-81
2024/01/15 12:37:46;;;;;;;6.60;6.40;;;-0.20;99.90;;;;;;6105291;23;20226;-81
2024/01/15 12:40:15;;;;;;;7.00;6.80;;;-0.20;99.90;;;;;;6105047;23;20280;-81
2024/01/15 12:42:44;;;;;;;7.00;6.80;;;-0.10;99.90;;;;;;6103847;23;20264;-82
2024/01/15 12:45:15;;;;;;;7.00;6.80;;;-0.10;99.90;;;;;;6106180;23;20190;-83
2024/01/15 12:47:47;;;;;;;7.10;6.90;;;0.00;99.90;;;;;;6107205;23;20194;-83
2024/01/15 12:50:14;;;;;;;7.17;6.97;;;0.00;99.90;;;;;;6110007;23;20265;-83
2024/01/15 12:52:42;;;;;;;7.07;6.87;;;0.10;99.90;;;;;;6115469;23;20240;-83
2024/01/15 12:55:11;;;;;;;6.90;6.70;;;0.10;99.90;;;;;;6120367;23;20249;-82
2024/01/15 12:57:38;;;;;;;7.03;6.83;;;0.10;99.90;;;;;;6119975;23;20204;-81
2024/01/15 13:00:11;;;;;;;6.90;6.70;;;0.10;99.90;;;;;;6119858;23;20257;-81
2024/01/15 13:02:40;;;;;;;7.00;6.80;;;0.10;99.90;;;;;;6119442;23;20233;-81
2024/01/15 13:05:10;;;;;;;7.03;6.83;;;0.10;99.90;;;;;;6120134;23;20201;-82
2024/01/15 13:07:38;;;;;;;6.87;6.67;;;0.10;99.90;;;;;;6113594;23;20245;-82
2024/01/15 13:10:06;;;;;;;7.13;6.93;;;0.10;99.90;;;;;;6107716;23;20282;-82
2024/01/15 13:12:34;;;;;;;7.00;6.80;;;0.10;99.90;;;;;;6106947;23;20229;-83
2024/01/15 13:15:03;;;;;;;7.23;7.03;;;0.10;99.90;;;;;;6107617;23;20208;-80
2024/01/15 13:17:33;;;;;;;7.97;7.77;;;0.00;99.90;;;;;;6106918;23;20226;-82
2024/01/15 13:20:00;;;;;;;7.60;7.40;;;0.00;99.90;;;;;;6107190;23;20197;-81
2024/01/15 13:22:31;;;;;;;7.57;7.37;;;0.00;99.90;;;;;;6106652;23;20264;-81
2024/01/15 13:24:58;;;;;;;7.80;7.60;;;0.00;99.90;;;;;;6106462;23;20689;-82
2024/01/15 13:27:26;;;;;;;7.33;7.13;;;0.00;99.90;;;;;;6105932;23;20220;-82
2024/01/15 13:29:53;;;;;;;7.27;7.07;;;0.00;99.90;;;;;;6106065;23;20280;-82
2024/01/15 13:32:26;;;;;;;7.40;7.20;;;0.00;99.90;;;;;;6106532;23;20217;-82
2024/01/15 13:34:57;;;;;;;7.13;6.93;;;0.10;99.90;;;;;;6105340;23;20197;-82
2024/01/15 13:37:24;;;;;;;7.40;7.20;;;0.10;99.90;;;;;;6105820;23;20209;-82
2024/01/15 13:39:53;;;;;;;7.20;7.00;;;0.10;99.90;;;;;;6105605;23;20223;-83
2024/01/15 13:42:21;;;;;;;7.37;7.17;;;0.10;99.90;;;;;;6105644;23;20205;-83
2024/01/15 13:44:48;;;;;;;7.73;7.53;;;0.10;99.90;;;;;;6105860;23;20197;-82
2024/01/15 13:47:16;;;;;;;8.20;8.00;;;0.00;99.90;;;;;;6105829;23;20197;-82
2024/01/15 13:49:43;;;;;;;7.90;7.70;;;0.00;99.90;;;;;;6106762;23;20210;-82
2024/01/15 13:52:12;;;;;;;7.43;7.23;;;0.00;99.90;;;;;;6106526;23;20209;-82
2024/01/15 13:54:39;;;;;;;7.70;7.50;;;0.00;99.90;;;;;;6106935;23;20202;-82
2024/01/15 13:57:06;;;;;;;7.90;7.70;;;0.00;99.90;;;;;;6106709;23;20213;-83
2024/01/15 13:59:34;;;;;;;8.30;8.10;;;-0.10;99.90;;;;;;6106793;23;20271;-83
2024/01/15 14:02:01;;;;;;;8.20;8.00;;;-0.10;99.90;;;;;;6106078;23;20197;-82
2024/01/15 14:04:29;;;;;;;7.80;7.60;;;0.00;99.90;;;;;;6107886;23;20258;-82
2024/01/15 14:06:59;;;;;;;8.20;8.00;;;-0.10;99.90;;;;;;6106613;23;20197;-82
2024/01/15 14:09:29;;;;;;;8.10;7.90;;;-0.10;99.90;;;;;;6106073;23;20208;-82
2024/01/15 14:11:58;;;;;;;7.83;7.63;;;-0.10;99.90;;;;;;6105204;23;20265;-83
2024/01/15 14:14:26;;;;;;;7.90;7.70;;;-0.10;99.90;;;;;;6104757;23;20209;-82
2024/01/15 14:16:53;;;;;;;8.00;7.80;;;-0.10;99.90;;;;;;6106172;23;20217;-82
2024/01/15 14:19:20;;;;;;;8.20;8.00;;;-0.10;99.90;;;;;;6105139;23;20205;-83
2024/01/15 14:21:47;;;;;;;7.90;7.70;;;-0.10;99.90;;;;;;6107891;23;20206;-82
2024/01/15 14:24:16;;;;;;;7.80;7.60;;;-0.10;99.90;;;;;;6106900;23;20198;-82
2024/01/15 14:26:46;;;;;;;7.37;7.17;;;-0.10;99.90;;;;;;6107217;23;20201;-82
2024/01/15 14:29:13;;;;;;;7.33;7.13;;;-0.10;99.90;;;;;;6105856;23;20194;-82